Time;durP1;ratioP1;P1;durP2;ratioP2;P2;SDS_P1;SDS_P2;PMS_P1;PMS_P2;Temp;Humidity;BMP_temperature;BMP_pressure;BME280_temperature;BME280_humidity;BME280_pressure;Samples;Min_cycle;Max_cycle;Signal;HPM_P1;HPM_P2
2023/06/05 00:02:05;;;;;;;;;6.00;5.25;;;;;22.85;27.49;101295.78;4960661;28;45475;-60
2023/06/05 00:04:30;;;;;;;;;4.25;4.25;;;;;22.81;27.43;101299.59;4989523;28;46346;-59
2023/06/05 00:07:00;;;;;;;;;6.75;6.75;;;;;22.73;27.21;101294.66;4974897;28;45372;-59
2023/06/05 00:09:25;;;;;;;;;7.75;4.00;;;;;22.73;27.60;101298.19;4995433;28;45325;-58
2023/06/05 00:11:50;;;;;;;;;4.25;4.00;;;;;22.70;27.66;101300.19;4979324;28;45360;-58
2023/06/05 00:14:16;;;;;;;;;4.00;3.75;;;;;22.66;27.91;101296.81;4979799;28;46011;-58
2023/06/05 00:16:41;;;;;;;;;7.00;6.00;;;;;22.61;28.25;101290.84;5005562;28;45625;-58
2023/06/05 00:19:06;;;;;;;;;4.50;4.50;;;;;22.59;28.27;101297.25;4960640;28;45633;-58
2023/06/05 00:21:32;;;;;;;;;3.25;3.25;;;;;22.54;28.11;101289.47;4958962;28;45816;-58
2023/06/05 00:23:57;;;;;;;;;5.00;4.00;;;;;22.50;27.99;101294.16;4959152;28;46421;-58
2023/06/05 00:26:23;;;;;;;;;5.00;4.00;;;;;22.48;28.28;101295.19;4958786;28;45319;-58
2023/06/05 00:28:48;;;;;;;;;6.50;5.75;;;;;22.45;27.96;101293.56;4960558;28;45564;-58
2023/06/05 00:31:14;;;;;;;;;4.25;4.25;;;;;22.42;28.30;101300.88;4959042;28;45629;-61
2023/06/05 00:33:40;;;;;;;;;4.50;4.00;;;;;22.37;28.86;101301.97;4963248;28;45354;-58
2023/06/05 00:36:06;;;;;;;;;5.75;5.50;;;;;22.34;28.77;101301.25;4963419;28;45256;-59
2023/06/05 00:38:32;;;;;;;;;4.00;3.75;;;;;22.28;28.92;101302.47;4963752;28;45302;-59
2023/06/05 00:40:57;;;;;;;;;5.75;4.50;;;;;22.25;28.73;101305.31;4963033;28;45255;-58
2023/06/05 00:43:22;;;;;;;;;5.00;5.00;;;;;22.23;28.47;101301.84;4963277;28;50678;-58
2023/06/05 00:45:52;;;;;;;;;4.25;4.25;;;;;22.20;29.17;101299.31;4963325;28;45220;-58
2023/06/05 00:48:17;;;;;;;;;4.75;4.75;;;;;22.15;28.58;101302.28;4963993;28;45399;-58
2023/06/05 00:50:42;;;;;;;;;3.25;3.25;;;;;22.13;29.37;101304.16;4963196;28;45395;-58
2023/06/05 00:53:08;;;;;;;;;8.50;5.00;;;;;22.10;28.98;101299.00;4963247;28;46091;-58
2023/06/05 00:55:34;;;;;;;;;7.75;5.25;;;;;22.09;29.11;101299.94;4961671;28;45288;-58
2023/06/05 00:58:01;;;;;;;;;6.75;6.00;;;;;22.05;29.39;101301.91;4963599;28;45437;-58
2023/06/05 01:00:27;;;;;;;;;6.75;5.25;;;;;22.04;29.23;101299.31;4978089;28;45505;-58
2023/06/05 01:02:53;;;;;;;;;5.75;5.75;;;;;22.01;28.92;101300.34;4982021;28;45852;-58
2023/06/05 01:05:19;;;;;;;;;8.50;5.75;;;;;21.96;29.32;101297.06;4980740;28;45686;-58
2023/06/05 01:07:47;;;;;;;;;5.25;3.75;;;;;21.94;29.47;101298.94;4982980;28;45393;-58
2023/06/05 01:10:13;;;;;;;;;6.25;4.50;;;;;21.92;29.30;101300.81;4997162;28;45456;-58
2023/06/05 01:12:51;;;;;;;;;6.25;6.00;;;;;21.88;29.65;101300.09;4997529;28;46023;-58
2023/06/05 01:15:18;;;;;;;;;6.75;4.25;;;;;21.86;29.63;101298.47;4985174;28;45362;-58
2023/06/05 01:17:47;;;;;;;;;5.00;4.25;;;;;21.83;29.79;101301.31;4981786;28;45166;-58
2023/06/05 01:20:12;;;;;;;;;4.25;4.25;;;;;21.81;29.61;101297.84;4962724;28;45428;-58
2023/06/05 01:22:38;;;;;;;;;3.50;3.50;;;;;21.77;29.49;101299.81;4962761;28;45425;-58
2023/06/05 01:25:07;;;;;;;;;5.25;4.25;;;;;21.74;29.86;101303.50;4962189;28;46910;-58
2023/06/05 01:27:57;;;;;;;;;5.25;4.25;;;;;21.72;29.91;101304.53;4977968;28;45371;-58
2023/06/05 01:30:30;;;;;;;;;4.50;4.50;;;;;21.66;29.92;101303.06;4962858;28;45373;-58
2023/06/05 01:33:12;;;;;;;;;6.75;3.75;;;;;21.65;29.83;101308.50;4962742;28;45342;-58
2023/06/05 01:35:39;;;;;;;;;4.00;4.00;;;;;21.61;30.06;101301.56;4962748;28;45281;-58
2023/06/05 01:38:06;;;;;;;;;5.75;5.00;;;;;21.57;30.36;101304.41;4962648;28;45234;-58
2023/06/05 01:40:34;;;;;;;;;7.75;7.25;;;;;21.56;30.02;101301.81;4962417;28;45496;-58
2023/06/05 01:43:02;;;;;;;;;6.00;5.25;;;;;21.53;30.51;101304.59;4960844;28;47087;-58
2023/06/05 01:45:28;;;;;;;;;9.75;6.50;;;;;21.49;30.05;101297.69;4962528;28;45266;-58
2023/06/05 01:47:56;;;;;;;;;6.00;6.00;;;;;21.46;30.42;101303.19;4962476;28;46566;-58
2023/06/05 01:50:22;;;;;;;;;4.50;4.00;;;;;21.41;30.71;101298.09;4962331;28;45313;-58
2023/06/05 01:52:49;;;;;;;;;6.75;4.00;;;;;21.39;30.60;101300.81;4962084;28;46067;-58
2023/06/05 01:55:23;;;;;;;;;8.00;6.00;;;;;21.37;30.59;101292.03;4960817;28;45318;-58
2023/06/05 01:57:49;;;;;;;;;7.00;7.00;;;;;21.33;30.73;101293.09;4962324;28;45267;-58
2023/06/05 02:00:15;;;;;;;;;5.50;5.00;;;;;21.32;30.79;101294.06;4962346;28;45262;-58
2023/06/05 02:02:47;;;;;;;;;5.00;5.00;;;;;21.28;30.54;101297.81;4963448;28;47024;-58
2023/06/05 02:05:14;;;;;;;;;31.50;29.00;;;;;21.26;30.64;101292.56;4977355;28;45405;-58
2023/06/05 02:07:41;;;;;;;;;32.00;26.25;;;;;21.24;31.18;101288.25;4981841;28;45266;-58
2023/06/05 02:10:08;;;;;;;;;6.75;5.00;;;;;21.21;31.05;101281.25;4981447;28;45254;-58
2023/06/05 02:12:34;;;;;;;;;6.75;6.00;;;;;21.19;30.60;101284.94;4981490;28;45428;-58
2023/06/05 02:15:00;;;;;;;;;6.25;6.25;;;;;21.13;31.19;101280.78;4980541;28;45231;-58
2023/06/05 02:17:26;;;;;;;;;5.75;5.50;;;;;21.14;30.83;101286.97;4985123;28;45501;-58
2023/06/05 02:19:51;;;;;;;;;5.00;4.25;;;;;21.13;31.41;101288.81;4961768;28;45668;-58
2023/06/05 02:22:17;;;;;;;;;4.75;4.75;;;;;21.09;31.51;101285.41;4962078;28;46694;-58
2023/06/05 02:24:43;;;;;;;;;5.50;5.50;;;;;21.06;31.27;101288.22;4961691;28;45342;-58
2023/06/05 02:27:10;;;;;;;;;5.00;4.50;;;;;21.04;31.60;101289.25;4962054;28;45344;-57
2023/06/05 02:29:36;;;;;;;;;7.00;5.50;;;;;21.02;31.53;101291.09;4961800;28;45323;-58
2023/06/05 02:32:03;;;;;;;;;5.75;4.75;;;;;20.99;31.56;101294.78;4976820;28;48242;-58
2023/06/05 02:34:28;;;;;;;;;6.00;6.00;;;;;20.89;31.34;101273.03;4960285;28;45395;-58
2023/06/05 02:36:53;;;;;;;;;4.75;4.25;;;;;20.94;31.71;101291.50;4961922;28;45288;-58
2023/06/05 02:39:19;;;;;;;;;6.50;5.50;;;;;20.88;31.37;101276.66;4961562;28;45224;-58
2023/06/05 02:41:44;;;;;;;;;6.25;6.25;;;;;20.88;31.30;101286.44;4975968;28;48152;-58
2023/06/05 02:44:10;;;;;;;;;9.75;6.00;;;;;20.83;31.54;101277.78;4961500;28;45231;-58
2023/06/05 02:46:35;;;;;;;;;5.50;4.00;;;;;20.83;31.53;101283.13;4961787;28;45352;-58
2023/06/05 02:49:00;;;;;;;;;8.50;6.75;;;;;20.80;31.61;101283.31;4960135;28;48380;-58
2023/06/05 02:51:26;;;;;;;;;5.75;5.50;;;;;20.77;31.61;101276.31;4961642;28;46042;-58
2023/06/05 02:53:51;;;;;;;;;6.25;6.00;;;;;20.73;32.02;101277.41;4961156;28;45340;-58
2023/06/05 02:56:16;;;;;;;;;5.00;4.00;;;;;20.71;32.14;101276.59;4960987;28;45444;-58
2023/06/05 02:58:43;;;;;;;;;5.75;5.50;;;;;20.65;32.04;101272.38;4961359;28;45523;-59
2023/06/05 03:01:10;;;;;;;;;7.75;6.00;;;;;20.61;32.31;101274.31;4961349;28;46358;-59
2023/06/05 03:03:35;;;;;;;;;5.50;5.50;;;;;20.60;32.18;101274.41;4971293;28;45468;-59
2023/06/05 03:06:04;;;;;;;;;7.25;4.75;;;;;20.57;32.44;101274.56;4973838;28;45240;-59
2023/06/05 03:08:33;;;;;;;;;6.50;6.50;;;;;20.53;32.45;101273.84;4976279;28;45473;-59
2023/06/05 03:11:03;;;;;;;;;4.50;4.50;;;;;20.52;32.12;101276.59;4960898;28;45499;-59
2023/06/05 03:13:29;;;;;;;;;6.50;6.50;;;;;20.48;32.29;101278.53;4976090;28;46000;-59
2023/06/05 03:16:00;;;;;;;;;8.50;6.00;;;;;20.45;32.63;101284.00;4976339;28;45325;-59
2023/06/05 03:18:29;;;;;;;;;8.00;6.25;;;;;20.42;32.76;101279.69;4961135;28;45311;-59
2023/06/05 03:20:55;;;;;;;;;9.00;6.25;;;;;20.38;32.79;101282.59;4961223;28;45339;-59
2023/06/05 03:23:25;;;;;;;;;6.00;6.00;;;;;20.34;32.70;101279.19;4960922;28;45427;-59
2023/06/05 03:25:51;;;;;;;;;5.25;5.25;;;;;20.32;32.54;101281.06;4959784;28;45350;-59
2023/06/05 03:28:17;;;;;;;;;6.25;6.00;;;;;20.32;32.55;101283.72;4975713;28;45276;-59
2023/06/05 03:30:43;;;;;;;;;8.00;7.50;;;;;20.28;32.88;101283.00;4960274;28;45474;-59
2023/06/05 03:33:09;;;;;;;;;5.75;5.00;;;;;20.24;32.76;101284.09;4960656;28;45265;-59
2023/06/05 03:35:34;;;;;;;;;7.25;5.75;;;;;20.22;32.98;101283.28;4961007;28;45279;-59
2023/06/05 03:38:00;;;;;;;;;5.00;5.00;;;;;20.19;33.14;101283.44;4960921;28;45473;-59
2023/06/05 03:40:25;;;;;;;;;7.00;5.00;;;;;20.18;33.29;101280.84;4960726;28;46338;-59
2023/06/05 03:42:51;;;;;;;;;9.00;8.00;;;;;20.16;32.76;101282.69;4960838;28;45495;-59
2023/06/05 03:45:16;;;;;;;;;4.75;4.75;;;;;20.14;32.69;101285.44;4961014;28;45345;-59
2023/06/05 03:47:43;;;;;;;;;8.00;7.25;;;;;20.11;32.74;101285.56;4960786;28;45334;-59
2023/06/05 03:50:09;;;;;;;;;9.50;6.75;;;;;20.09;33.02;101282.13;4960714;28;47056;-59
2023/06/05 03:52:39;;;;;;;;;7.25;7.25;;;;;20.06;33.26;101280.47;4960616;28;45315;-59
2023/06/05 03:55:07;;;;;;;;;7.00;6.25;;;;;20.03;33.09;101290.41;4960446;28;45236;-59
2023/06/05 03:57:33;;;;;;;;;6.75;6.00;;;;;20.01;32.72;101289.59;4975479;28;46480;-59
2023/06/05 03:59:58;;;;;;;;;9.00;8.00;;;;;19.95;32.89;101286.28;4960488;28;46090;-59
2023/06/05 04:02:24;;;;;;;;;8.75;8.25;;;;;19.92;33.19;101282.88;4975669;28;45523;-59
2023/06/05 04:04:50;;;;;;;;;7.50;6.00;;;;;19.91;33.60;101291.81;4980333;28;45404;-59
2023/06/05 04:07:16;;;;;;;;;10.00;9.00;;;;;19.86;33.38;101291.16;4965785;28;45513;-60
2023/06/05 04:09:41;;;;;;;;;12.00;11.00;;;;;19.85;33.77;101289.41;4963688;28;46083;-59
2023/06/05 04:12:07;;;;;;;;;10.00;7.50;;;;;19.84;33.49;101293.03;4963680;28;45331;-60
2023/06/05 04:14:32;;;;;;;;;8.00;8.00;;;;;19.78;33.31;101292.31;4963904;28;45413;-59
2023/06/05 04:16:59;;;;;;;;;9.00;7.25;;;;;19.76;33.59;101291.53;4989165;28;45394;-59
2023/06/05 04:19:25;;;;;;;;;11.75;7.75;;;;;19.76;33.79;101295.97;4963788;28;45386;-60
2023/06/05 04:21:51;;;;;;;;;8.50;7.00;;;;;19.71;34.06;101303.31;4963556;28;45201;-59
2023/06/05 04:24:16;;;;;;;;;9.75;7.25;;;;;19.71;34.13;101301.53;4964031;28;45562;-59
2023/06/05 04:26:41;;;;;;;;;10.50;10.00;;;;;19.67;33.97;101305.25;4963330;28;45592;-59
2023/06/05 04:29:15;;;;;;;;;11.75;8.00;;;;;19.64;34.11;101294.72;4978539;28;48627;-59
2023/06/05 04:31:41;;;;;;;;;12.25;8.75;;;;;19.64;33.98;101300.91;4978639;28;45356;-59
2023/06/05 04:34:08;;;;;;;;;9.25;8.50;;;;;19.61;34.00;101300.22;4963641;28;45354;-59
2023/06/05 04:36:34;;;;;;;;;7.00;6.75;;;;;19.60;34.38;101301.13;4963406;28;45277;-59
2023/06/05 04:39:01;;;;;;;;;10.25;8.50;;;;;19.54;34.29;101302.25;4963403;28;46454;-59
2023/06/05 04:41:29;;;;;;;;;20.75;17.00;;;;;19.54;34.04;101309.41;4961733;28;45289;-59
2023/06/05 04:43:57;;;;;;;;;11.00;8.00;;;;;19.52;34.15;101311.25;4963724;28;45184;-59
2023/06/05 04:46:23;;;;;;;;;11.00;8.00;;;;;19.48;34.14;101303.41;4978282;28;45486;-59
2023/06/05 04:48:48;;;;;;;;;10.25;9.75;;;;;19.48;34.42;101311.41;4963103;28;45342;-59
2023/06/05 04:51:14;;;;;;;;;11.50;11.00;;;;;19.42;34.46;101298.34;4963337;28;45444;-59
2023/06/05 04:53:41;;;;;;;;;7.75;7.75;;;;;19.45;34.74;101308.00;4963417;28;45355;-59
2023/06/05 04:56:07;;;;;;;;;9.75;8.00;;;;;19.43;34.73;101305.41;4962977;28;45172;-59
2023/06/05 04:58:32;;;;;;;;;10.50;9.50;;;;;19.43;34.54;101308.06;4963236;28;45363;-59
2023/06/05 05:01:04;;;;;;;;;9.00;8.25;;;;;19.41;34.83;101312.59;4963310;28;48192;-59
2023/06/05 05:03:30;;;;;;;;;8.25;7.00;;;;;19.40;34.85;101310.84;4971215;28;45267;-59
2023/06/05 05:05:56;;;;;;;;;8.75;8.25;;;;;19.38;34.82;101315.34;4991279;28;45663;-59
2023/06/05 05:08:21;;;;;;;;;8.00;6.00;;;;;19.37;34.74;101316.31;4963050;28;47436;-59
2023/06/05 05:10:47;;;;;;;;;10.75;10.00;;;;;19.36;34.82;101305.69;4962821;28;45208;-59
2023/06/05 05:13:12;;;;;;;;;12.25;10.50;;;;;19.34;35.18;101308.44;4963193;28;45302;-59
2023/06/05 05:15:37;;;;;;;;;8.50;8.00;;;;;19.32;35.21;101305.84;4974290;28;45229;-59
2023/06/05 05:18:03;;;;;;;;;12.25;9.25;;;;;19.32;35.19;101305.84;4975719;28;53640;-59
2023/06/05 05:20:29;;;;;;;;;7.75;7.75;;;;;19.31;35.35;101314.75;4962866;28;45236;-59
2023/06/05 05:22:55;;;;;;;;;8.75;8.75;;;;;19.31;35.24;101311.25;4963042;28;45175;-59
2023/06/05 05:25:21;;;;;;;;;9.75;9.00;;;;;19.30;34.97;101307.69;4962449;28;45278;-59
2023/06/05 05:27:47;;;;;;;;;9.00;8.25;;;;;19.29;35.16;101313.09;4962509;28;45291;-59
2023/06/05 05:30:13;;;;;;;;;10.00;8.25;;;;;19.28;35.31;101311.34;4962617;28;45360;-59
2023/06/05 05:32:38;;;;;;;;;12.75;9.75;;;;;19.28;36.10;101306.03;4962809;28;45350;-59
2023/06/05 05:35:04;;;;;;;;;7.50;6.75;;;;;19.29;35.66;101323.75;4961948;28;55641;-59
2023/06/05 05:37:30;;;;;;;;;9.50;9.00;;;;;19.26;35.30;101315.91;4974153;28;45481;-59
2023/06/05 05:39:55;;;;;;;;;8.00;7.50;;;;;19.27;35.64;101320.28;4981745;28;45530;-59
2023/06/05 05:42:20;;;;;;;;;10.00;10.00;;;;;19.29;35.44;101318.41;4982360;28;45945;-59
2023/06/05 05:44:46;;;;;;;;;8.50;8.50;;;;;19.27;35.75;101320.28;4982067;28;45430;-60
2023/06/05 05:47:11;;;;;;;;;10.50;10.00;;;;;19.27;35.77;101323.81;4982071;28;46863;-59
2023/06/05 05:49:37;;;;;;;;;12.75;11.00;;;;;19.27;35.73;101318.50;4981825;28;45227;-59
2023/06/05 05:52:03;;;;;;;;;12.25;10.50;;;;;19.30;35.84;101325.50;4982192;28;45243;-59
2023/06/05 05:54:28;;;;;;;;;13.50;13.50;;;;;19.30;35.11;101322.81;4981647;28;45378;-59
2023/06/05 05:56:54;;;;;;;;;11.50;10.75;;;;;19.30;36.02;101328.16;4981434;28;45325;-60
2023/06/05 05:59:19;;;;;;;;;11.25;10.50;;;;;19.30;35.94;101325.50;4981681;28;45219;-60
2023/06/05 06:01:45;;;;;;;;;3.50;3.50;;;;;19.32;36.13;101324.50;4982228;28;45789;-59
2023/06/05 06:04:11;;;;;;;;;9.00;8.00;;;;;19.32;35.66;101328.97;4981535;28;45669;-59
2023/06/05 06:06:39;;;;;;;;;8.50;8.00;;;;;19.33;35.80;101328.91;4969758;28;45470;-60
2023/06/05 06:09:07;;;;;;;;;11.50;9.75;;;;;19.33;35.87;101336.00;4961822;28;45283;-60
2023/06/05 06:11:33;;;;;;;;;10.50;9.50;;;;;19.35;35.83;101334.16;4961780;28;45185;-60
2023/06/05 06:13:59;;;;;;;;;12.50;12.00;;;;;19.37;35.49;101342.97;4962026;28;45230;-60
2023/06/05 06:16:24;;;;;;;;;7.25;7.00;;;;;19.37;36.19;101337.63;4986116;28;46093;-59
2023/06/05 06:18:50;;;;;;;;;13.25;11.50;;;;;19.39;36.17;101338.41;4963190;28;45171;-60
2023/06/05 06:21:16;;;;;;;;;11.50;10.00;;;;;19.43;35.86;101341.81;4962309;28;45251;-59
2023/06/05 06:23:41;;;;;;;;;8.25;8.25;;;;;19.40;36.21;101334.81;4961830;28;45377;-59
2023/06/05 06:26:07;;;;;;;;;12.50;10.00;;;;;19.44;35.94;101344.41;4960239;28;48003;-59
2023/06/05 06:28:32;;;;;;;;;13.00;11.75;;;;;19.45;36.35;101343.50;4961511;28;45410;-59
2023/06/05 06:30:58;;;;;;;;;11.25;9.00;;;;;19.48;36.16;101350.50;4960060;28;45284;-59
2023/06/05 06:33:24;;;;;;;;;14.25;12.00;;;;;19.47;36.54;101343.41;4961476;28;45397;-59
2023/06/05 06:35:49;;;;;;;;;10.00;9.50;;;;;19.48;36.22;101346.03;4961795;28;47502;-59
2023/06/05 06:38:14;;;;;;;;;13.75;13.25;;;;;19.51;36.23;101345.03;4961488;28;45315;-59
2023/06/05 06:40:40;;;;;;;;;15.25;11.50;;;;;19.53;36.06;101351.16;4961661;28;45298;-59
2023/06/05 06:43:05;;;;;;;;;7.00;5.50;;;;;19.56;36.30;101347.50;4961536;28;45425;-59
2023/06/05 06:45:31;;;;;;;;;13.00;12.50;;;;;19.56;36.57;101347.50;4961539;28;45196;-59
2023/06/05 06:47:56;;;;;;;;;15.75;11.25;;;;;19.58;36.50;101351.81;4961521;28;45239;-59
2023/06/05 06:50:22;;;;;;;;;11.25;9.00;;;;;19.61;36.37;101350.88;4961706;28;45441;-59
2023/06/05 06:52:47;;;;;;;;;10.25;8.00;;;;;19.63;36.67;101351.66;4961454;28;45211;-59
2023/06/05 06:55:12;;;;;;;;;12.50;11.00;;;;;19.64;36.36;101348.06;4960913;28;45431;-59
2023/06/05 06:57:37;;;;;;;;;10.50;9.25;;;;;19.67;36.57;101355.91;4961456;28;45275;-59
2023/06/05 07:00:08;;;;;;;;;13.00;10.50;;;;;19.68;36.52;101346.97;4961587;28;45307;-59
2023/06/05 07:02:33;;;;;;;;;11.50;11.00;;;;;19.71;36.13;101353.97;4961588;28;45497;-59
2023/06/05 07:04:59;;;;;;;;;13.75;10.25;;;;;19.74;36.26;101356.53;4980581;28;47127;-59
2023/06/05 07:07:24;;;;;;;;;12.75;11.00;;;;;19.74;36.52;101356.53;4961457;28;56035;-59
2023/06/05 07:09:53;;;;;;;;;9.00;9.00;;;;;19.79;36.69;101354.53;4961352;28;45460;-59
2023/06/05 07:12:20;;;;;;;;;11.25;10.50;;;;;19.80;36.76;101349.13;4961144;28;45203;-59
2023/06/05 07:14:45;;;;;;;;;14.25;10.50;;;;;19.86;36.34;101350.69;4960908;28;46184;-59
2023/06/05 07:17:11;;;;;;;;;10.50;9.25;;;;;19.89;36.24;101355.88;5000805;28;45251;-59
2023/06/05 07:19:37;;;;;;;;;15.00;10.50;;;;;19.89;36.56;101355.03;4961467;28;45334;-59
2023/06/05 07:22:07;;;;;;;;;12.00;11.00;;;;;19.94;36.98;101358.38;4961212;28;45604;-59
2023/06/05 07:24:35;;;;;;;;;9.50;9.00;;;;;19.93;36.36;101348.63;4961236;28;46406;-59
2023/06/05 07:27:02;;;;;;;;;10.75;10.50;;;;;20.01;36.75;101351.81;4959559;28;45389;-59
2023/06/05 07:29:27;;;;;;;;;9.25;9.25;;;;;20.05;36.53;101364.09;4961171;28;45399;-59
2023/06/05 07:31:54;;;;;;;;;11.50;10.50;;;;;20.07;36.34;101361.34;4961116;28;45387;-59
2023/06/05 07:34:21;;;;;;;;;9.00;8.25;;;;;20.09;36.50;101357.69;4960795;28;45418;-59
2023/06/05 07:36:48;;;;;;;;;9.50;9.00;;;;;20.16;36.47;101357.41;4960821;28;45171;-59
2023/06/05 07:39:14;;;;;;;;;8.50;8.00;;;;;20.18;36.47;101358.22;4959698;28;45228;-59
2023/06/05 07:41:40;;;;;;;;;8.75;8.00;;;;;20.21;36.74;101356.25;4977587;28;45538;-59
2023/06/05 07:44:08;;;;;;;;;8.00;8.00;;;;;20.23;36.44;101357.06;4962862;28;45380;-59
2023/06/05 07:46:33;;;;;;;;;11.50;10.00;;;;;20.28;36.30;101365.72;4979214;28;45350;-59
2023/06/05 07:48:59;;;;;;;;;9.25;8.75;;;;;20.33;36.58;101360.19;4964261;28;45234;-59
2023/06/05 07:51:25;;;;;;;;;16.75;11.00;;;;;20.35;36.68;101346.75;4964374;28;45498;-59
2023/06/05 07:53:50;;;;;;;;;8.50;8.50;;;;;20.34;36.31;101343.25;4962832;28;45409;-59
2023/06/05 07:56:16;;;;;;;;;11.00;10.00;;;;;20.44;36.41;101357.88;4963885;28;45293;-59
2023/06/05 07:58:42;;;;;;;;;8.25;8.25;;;;;20.47;36.75;101354.22;4964200;28;45338;-59
2023/06/05 08:01:07;;;;;;;;;8.25;8.00;;;;;20.52;36.95;101349.53;4964349;28;45583;-59
2023/06/05 08:03:33;;;;;;;;;10.25;9.25;;;;;20.55;36.84;101352.06;4988176;28;47329;-59
2023/06/05 08:05:59;;;;;;;;;9.25;8.00;;;;;20.60;36.89;101350.03;4976772;28;45195;-59
2023/06/05 08:08:24;;;;;;;;;11.25;9.25;;;;;20.63;36.83;101339.22;4964243;28;45426;-59
2023/06/05 08:10:50;;;;;;;;;7.50;7.00;;;;;20.71;36.51;101346.03;4963850;28;45764;-59
2023/06/05 08:13:16;;;;;;;;;8.25;8.25;;;;;20.75;36.39;101344.94;4963806;28;45301;-59
2023/06/05 08:15:41;;;;;;;;;8.00;8.00;;;;;20.77;36.41;101338.59;4976368;28;45271;-59
2023/06/05 08:18:08;;;;;;;;;8.50;7.00;;;;;20.85;36.87;101337.34;4975631;28;45467;-59
2023/06/05 08:20:33;;;;;;;;;8.75;8.75;;;;;20.87;36.37;101333.69;4963913;28;45343;-59
2023/06/05 08:22:59;;;;;;;;;9.75;8.50;;;;;20.94;36.71;101343.13;4963798;28;46581;-59
2023/06/05 08:25:25;;;;;;;;;9.00;8.00;;;;;21.00;36.28;101347.28;4961822;28;53027;-59
2023/06/05 08:27:50;;;;;;;;;10.75;10.00;;;;;21.04;36.71;101340.88;4963866;28;45325;-59
2023/06/05 08:30:16;;;;;;;;;4.25;4.25;;;;;21.11;36.45;101336.09;4963609;28;45386;-59
2023/06/05 08:32:43;;;;;;;;;8.00;8.00;;;;;21.16;36.73;101333.22;4963780;28;45348;-59
2023/06/05 08:35:09;;;;;;;;;9.00;9.00;;;;;21.22;36.18;101338.22;4963594;28;45230;-59
2023/06/05 08:37:34;;;;;;;;;9.25;8.50;;;;;21.26;36.25;101335.31;4963729;28;45223;-59
2023/06/05 08:40:05;;;;;;;;;11.00;9.75;;;;;21.32;36.15;101339.50;4963202;28;47187;-59
2023/06/05 08:42:31;;;;;;;;;8.50;8.25;;;;;21.38;36.37;101339.22;4963633;28;47105;-59
2023/06/05 08:44:56;;;;;;;;;9.25;9.25;;;;;21.43;36.35;101341.63;4978377;28;45265;-59
2023/06/05 08:47:24;;;;;;;;;9.25;8.75;;;;;21.48;36.25;101334.25;4963429;28;45360;-59
2023/06/05 08:49:52;;;;;;;;;8.25;8.25;;;;;21.53;36.45;101334.88;4962261;28;45396;-59
2023/06/05 08:52:21;;;;;;;;;8.25;8.25;;;;;21.57;36.76;101332.94;4962078;28;45568;-59
2023/06/05 08:54:46;;;;;;;;;8.75;8.75;;;;;21.64;36.18;101339.72;4963134;28;45552;-59
2023/06/05 08:57:12;;;;;;;;;9.75;9.75;;;;;21.69;36.41;101340.34;4963199;28;45231;-60
2023/06/05 08:59:38;;;;;;;;;7.25;6.50;;;;;21.76;36.49;101343.56;4963527;28;45229;-59
2023/06/05 09:02:04;;;;;;;;;10.00;6.00;;;;;21.81;36.26;101336.19;4963115;28;46106;-59
2023/06/05 09:04:32;;;;;;;;;8.75;7.75;;;;;21.86;36.75;101331.44;4980130;28;45292;-59
2023/06/05 09:06:58;;;;;;;;;9.50;9.50;;;;;21.91;36.62;101339.22;4968042;28;45324;-60
2023/06/05 09:09:25;;;;;;;;;9.00;8.00;;;;;22.00;36.14;101335.19;4963175;28;45401;-59
2023/06/05 09:12:08;;;;;;;;;9.50;9.50;;;;;22.04;36.70;101332.28;4962455;28;46297;-60
2023/06/05 09:14:34;;;;;;;;;7.50;7.50;;;;;22.10;36.46;101336.44;4962893;28;45370;-59
2023/06/05 09:17:00;;;;;;;;;7.75;7.75;;;;;22.16;36.77;101314.72;4988541;28;45499;-59
2023/06/05 09:19:38;;;;;;;;;12.50;8.25;;;;;22.26;36.38;101330.25;4962881;28;45166;-59
2023/06/05 09:22:05;;;;;;;;;7.75;7.75;;;;;22.31;36.13;101331.72;4962748;28;46259;-59
2023/06/05 09:24:30;;;;;;;;;11.25;8.25;;;;;22.37;36.18;101326.06;4962536;28;45322;-59
2023/06/05 09:27:08;;;;;;;;;9.00;9.00;;;;;22.45;36.23;101327.47;4962678;28;45247;-59
2023/06/05 09:29:38;;;;;;;;;7.25;7.25;;;;;22.51;36.36;101324.47;4962753;28;45619;-59
2023/06/05 09:32:09;;;;;;;;;8.50;8.00;;;;;22.58;36.42;101323.19;4977225;28;47934;-59
2023/06/05 09:34:39;;;;;;;;;8.75;7.75;;;;;22.64;36.19;101320.16;4962287;28;45363;-59
2023/06/05 09:37:07;;;;;;;;;9.50;8.50;;;;;22.71;36.13;101321.53;4977725;28;45352;-59
2023/06/05 09:39:38;;;;;;;;;11.75;9.50;;;;;22.79;36.36;101318.44;4962177;28;45329;-60
2023/06/05 09:42:04;;;;;;;;;11.25;10.50;;;;;22.87;36.28;101320.66;4962336;28;45255;-59
2023/06/05 09:44:32;;;;;;;;;10.00;8.75;;;;;22.93;35.98;101314.09;4962477;28;45204;-59
2023/06/05 09:47:05;;;;;;;;;12.00;9.25;;;;;23.00;36.03;101313.63;4962762;28;45750;-58
2023/06/05 09:49:39;;;;;;;;;11.00;9.00;;;;;23.09;36.25;101308.72;4962363;28;45271;-59
2023/06/05 09:52:05;;;;;;;;;13.25;9.75;;;;;23.14;36.05;101307.47;4962424;28;46265;-58
2023/06/05 09:54:31;;;;;;;;;6.25;6.25;;;;;23.23;35.76;101300.75;4960782;28;45367;-58
2023/06/05 09:57:02;;;;;;;;;7.25;7.25;;;;;23.32;35.81;101310.06;4962248;28;45524;-59
2023/06/05 09:59:32;;;;;;;;;9.25;9.25;;;;;23.42;35.85;101299.66;4962308;28;45420;-58
2023/06/05 10:02:05;;;;;;;;;13.50;8.50;;;;;23.45;35.98;101292.31;4962124;28;45377;-58
2023/06/05 10:04:51;;;;;;;;;8.75;7.50;;;;;23.61;35.74;101300.28;4990724;28;45343;-58
2023/06/05 10:07:17;;;;;;;;;11.25;10.50;;;;;23.72;35.64;101301.47;4979344;28;45354;-59
2023/06/05 10:09:44;;;;;;;;;6.25;5.25;;;;;23.82;35.85;101308.88;4981442;28;46588;-58
2023/06/05 10:12:10;;;;;;;;;12.75;10.00;;;;;23.92;35.84;101295.75;4981318;28;45841;-59
2023/06/05 10:14:36;;;;;;;;;9.75;9.00;;;;;24.02;35.90;101304.97;4981519;28;45279;-58
2023/06/05 10:17:02;;;;;;;;;8.25;8.25;;;;;24.12;35.19;101297.19;4990048;28;45404;-58
2023/06/05 10:19:28;;;;;;;;;13.00;12.00;;;;;24.26;35.51;101301.69;4962063;28;45441;-58
2023/06/05 10:21:53;;;;;;;;;11.25;9.50;;;;;24.40;35.21;101299.97;4961829;28;45957;-58
2023/06/05 10:24:23;;;;;;;;;7.25;6.25;;;;;24.50;35.30;101288.53;4960821;28;45176;-59
2023/06/05 10:27:10;;;;;;;;;10.00;10.00;;;;;24.69;35.00;101297.25;4961835;28;45339;-58
2023/06/05 10:29:57;;;;;;;;;7.00;7.00;;;;;24.88;35.56;101296.91;4961646;28;45751;-59
2023/06/05 10:32:28;;;;;;;;;10.25;9.50;;;;;25.09;34.95;101303.56;4961884;28;46066;-59
2023/06/05 10:35:08;;;;;;;;;6.75;6.75;;;;;25.36;35.56;101300.00;4961333;28;45259;-59
2023/06/05 10:37:52;;;;;;;;;10.25;7.00;;;;;25.76;35.36;101302.63;4961837;28;45245;-58
2023/06/05 10:40:18;;;;;;;;;8.50;8.00;;;;;26.16;35.86;101290.03;4961329;28;45381;-59
2023/06/05 10:42:43;;;;;;;;;10.25;10.00;;;;;26.63;35.17;101295.63;4961403;28;46137;-59
2023/06/05 10:45:09;;;;;;;;;9.00;9.00;;;;;27.08;35.69;101285.97;4976615;28;46215;-59
2023/06/05 10:47:35;;;;;;;;;9.00;8.50;;;;;27.69;35.22;101292.19;4961689;28;45233;-59
2023/06/05 10:50:16;;;;;;;;;8.50;8.25;;;;;28.32;35.42;101289.06;4961508;28;45564;-59
2023/06/05 10:52:43;;;;;;;;;8.75;8.75;;;;;28.95;35.35;101286.59;4961394;28;46022;-58
2023/06/05 10:55:09;;;;;;;;;11.00;9.50;;;;;29.55;34.95;101288.78;4961006;28;45344;-59
2023/06/05 10:58:17;;;;;;;;;9.00;8.25;;;;;30.25;34.40;101286.31;4961448;28;45229;-58
2023/06/05 11:01:14;;;;;;;;;11.50;10.00;;;;;31.02;34.49;101283.03;4959797;28;45528;-59
2023/06/05 11:03:56;;;;;;;;;12.00;11.00;;;;;31.71;34.59;101273.88;4971602;28;46407;-59
2023/06/05 11:06:22;;;;;;;;;10.25;10.25;;;;;32.30;34.34;101275.50;4970608;28;45628;-59
2023/06/05 11:09:12;;;;;;;;;12.75;8.25;;;;;32.96;33.68;101273.50;4960013;28;45341;-59
2023/06/05 11:12:00;;;;;;;;;8.75;8.75;;;;;33.55;33.37;101276.53;4960832;28;45384;-59
2023/06/05 11:14:46;;;;;;;;;6.75;6.75;;;;;34.13;32.96;101274.16;4961111;28;45497;-59
2023/06/05 11:17:37;;;;;;;;;11.00;9.50;;;;;34.70;32.54;101267.19;4989539;28;45301;-59
2023/06/05 11:20:09;;;;;;;;;7.75;7.50;;;;;35.19;32.54;101269.94;4980527;28;45247;-59
2023/06/05 11:22:53;;;;;;;;;7.00;7.00;;;;;35.74;31.74;101268.34;4980121;28;45479;-59
2023/06/05 11:25:20;;;;;;;;;7.75;7.75;;;;;36.22;31.66;101257.41;4980299;28;46209;-59